createdAt,value
2019-05-19T00:01:11.063Z,64.71
2019-05-19T00:04:01.339Z,64.77
2019-05-19T00:06:51.063Z,64.82
2019-05-19T00:09:40.776Z,64.85
2019-05-19T00:12:30.537Z,64.89
2019-05-19T00:15:20.565Z,64.91
2019-05-19T00:18:10.823Z,64.92
2019-05-19T00:21:00.799Z,64.89
2019-05-19T00:23:51.163Z,64.92
2019-05-19T00:26:41.098Z,64.95
2019-05-19T00:29:31.361Z,65.01
2019-05-19T00:32:21.922Z,65.03
2019-05-19T00:35:11.692Z,65.08
2019-05-19T00:38:01.314Z,65.05
2019-05-19T00:40:51.408Z,65.08
2019-05-19T00:43:41.454Z,65.18
2019-05-19T00:46:31.818Z,65.24
2019-05-19T00:49:21.722Z,65.28
2019-05-19T00:52:11.531Z,65.34
2019-05-19T00:55:00.994Z,65.38
2019-05-19T00:57:51.146Z,65.42
2019-05-19T01:00:41.281Z,65.48
2019-05-19T01:03:31.186Z,65.53
2019-05-19T01:06:21.375Z,65.55
2019-05-19T01:09:11.405Z,65.59
2019-05-19T01:12:01.583Z,65.60
2019-05-19T01:14:50.957Z,65.56
2019-05-19T01:17:40.696Z,65.62
2019-05-19T01:20:31.268Z,65.66
2019-05-19T01:23:20.907Z,65.72
2019-05-19T01:26:10.767Z,65.76
2019-05-19T01:29:00.464Z,65.78
2019-05-19T01:31:50.241Z,65.79
2019-05-19T01:34:40.233Z,65.79
2019-05-19T01:37:29.974Z,65.82
2019-05-19T01:40:19.850Z,65.86
2019-05-19T01:43:10.391Z,65.87
2019-05-19T01:46:00.174Z,65.89
2019-05-19T01:48:50.227Z,65.95
2019-05-19T01:51:40.826Z,66.06
2019-05-19T01:54:30.362Z,66.09
2019-05-19T01:57:19.895Z,66.06
2019-05-19T02:00:10.885Z,66.04
2019-05-19T02:03:00.183Z,66.04
2019-05-19T02:05:50.445Z,65.99
2019-05-19T02:08:40.622Z,65.95
2019-05-19T02:11:30.624Z,65.95
2019-05-19T02:14:20.824Z,65.86
2019-05-19T02:17:10.593Z,65.92
2019-05-19T02:20:00.589Z,65.85
2019-05-19T02:22:50.703Z,65.80
2019-05-19T02:25:40.780Z,65.79
2019-05-19T02:28:30.961Z,65.77
2019-05-19T02:31:20.333Z,65.71
2019-05-19T02:34:09.708Z,65.75
2019-05-19T02:36:59.483Z,65.80
2019-05-19T02:39:49.607Z,65.81
2019-05-19T02:42:43.063Z,65.80
2019-05-19T02:45:36.264Z,65.77
2019-05-19T02:48:28.652Z,65.76
2019-05-19T02:51:19.447Z,65.76
2019-05-19T02:54:10.169Z,65.77
2019-05-19T02:57:02.937Z,65.75
2019-05-19T02:59:53.800Z,65.79
2019-05-19T03:02:43.794Z,65.76
2019-05-19T03:05:33.655Z,65.77
2019-05-19T03:08:23.825Z,65.80
2019-05-19T03:11:13.480Z,65.84
2019-05-19T03:14:03.682Z,65.87
2019-05-19T03:16:53.306Z,65.92
2019-05-19T03:19:43.033Z,65.97
2019-05-19T03:22:33.280Z,66.04
2019-05-19T03:25:23.571Z,66.10
2019-05-19T03:28:13.151Z,66.16
2019-05-19T03:31:13.851Z,66.27
2019-05-19T03:34:03.842Z,66.30
2019-05-19T03:36:54.334Z,66.36
2019-05-19T03:39:44.502Z,66.42
2019-05-19T03:42:34.496Z,66.53
2019-05-19T03:45:24.408Z,66.57
2019-05-19T03:48:14.806Z,66.53
2019-05-19T03:51:04.634Z,66.58
2019-05-19T03:53:54.876Z,66.62
2019-05-19T03:56:44.465Z,66.62
2019-05-19T03:59:35.255Z,66.61
2019-05-19T04:02:25.446Z,66.61
2019-05-19T04:05:16.155Z,66.57
2019-05-19T04:08:06.334Z,66.53
2019-05-19T04:10:56.444Z,66.50
2019-05-19T04:13:46.225Z,66.48
2019-05-19T04:16:36.505Z,66.50
2019-05-19T04:19:26.140Z,66.52
2019-05-19T04:22:15.927Z,66.48
2019-05-19T04:25:07.412Z,66.42
2019-05-19T04:27:57.478Z,66.36
2019-05-19T04:30:47.549Z,66.32
2019-05-19T04:33:37.903Z,66.32
2019-05-19T04:36:27.762Z,66.29
2019-05-19T04:39:17.901Z,66.23
2019-05-19T04:42:08.106Z,66.05
2019-05-19T04:44:58.123Z,65.94
2019-05-19T04:47:48.202Z,65.86
2019-05-19T04:50:38.263Z,65.81
2019-05-19T04:53:28.404Z,65.76
2019-05-19T04:56:19.803Z,65.67
2019-05-19T04:59:10.406Z,65.42
2019-05-19T05:02:00.407Z,65.09
2019-05-19T05:04:51.798Z,65.10
2019-05-19T05:07:41.846Z,64.98
2019-05-19T05:10:31.351Z,64.84
2019-05-19T05:13:21.286Z,64.48
2019-05-19T05:16:11.380Z,64.34
2019-05-19T05:19:01.154Z,63.98
2019-05-19T05:21:51.429Z,63.77
2019-05-19T05:24:41.254Z,63.60
2019-05-19T05:27:31.199Z,63.54
2019-05-19T05:30:21.712Z,63.45
2019-05-19T05:33:11.494Z,63.11
2019-05-19T05:36:01.681Z,62.76
2019-05-19T05:38:51.656Z,62.36
2019-05-19T05:41:41.523Z,62.08
2019-05-19T05:44:31.608Z,61.62
2019-05-19T05:47:21.710Z,61.51
2019-05-19T05:50:11.409Z,61.26
2019-05-19T05:53:01.159Z,60.65
2019-05-19T05:55:50.984Z,60.67
2019-05-19T05:58:41.301Z,60.60
2019-05-19T06:01:31.113Z,60.21
2019-05-19T06:04:21.288Z,60.07
2019-05-19T06:07:11.494Z,59.92
2019-05-19T06:10:01.787Z,59.54
2019-05-19T06:12:54.868Z,59.36
2019-05-19T06:15:44.357Z,59.17
2019-05-19T06:18:34.488Z,59.09
2019-05-19T06:21:24.453Z,58.73
2019-05-19T06:24:14.691Z,58.28
2019-05-19T06:27:04.813Z,58.02
2019-05-19T06:29:54.543Z,58.09
2019-05-19T06:32:48.220Z,58.14
2019-05-19T06:35:38.357Z,58.11
2019-05-19T06:38:28.276Z,57.74
2019-05-19T06:41:18.368Z,57.18
2019-05-19T06:44:09.053Z,56.87
2019-05-19T06:46:58.839Z,57.12
2019-05-19T06:49:48.771Z,57.31
2019-05-19T06:52:38.868Z,57.19
2019-05-19T06:55:28.605Z,56.79
2019-05-19T06:58:18.573Z,56.41
2019-05-19T07:01:08.831Z,55.95
2019-05-19T07:03:59.075Z,55.60
2019-05-19T07:06:49.245Z,55.49
2019-05-19T07:09:39.128Z,54.67
2019-05-19T07:12:29.907Z,54.86
2019-05-19T07:15:20.301Z,54.39
2019-05-19T07:18:09.888Z,55.00
2019-05-19T07:20:59.571Z,54.52
2019-05-19T07:23:49.054Z,54.23
2019-05-19T07:26:38.551Z,53.87
2019-05-19T07:29:28.568Z,53.91
2019-05-19T07:32:18.691Z,52.46
2019-05-19T07:35:09.010Z,52.16
2019-05-19T07:37:58.874Z,51.85
2019-05-19T07:40:48.697Z,52.38
2019-05-19T07:43:38.854Z,52.19
2019-05-19T07:46:28.772Z,51.93
2019-05-19T07:49:18.491Z,51.30
2019-05-19T07:52:08.760Z,50.81
2019-05-19T07:54:59.243Z,49.96
2019-05-19T07:57:49.080Z,50.22
2019-05-19T08:00:38.577Z,49.31
2019-05-19T08:03:28.294Z,48.13
2019-05-19T08:06:18.468Z,48.17
2019-05-19T08:09:08.530Z,48.58
2019-05-19T08:11:58.341Z,48.98
2019-05-19T08:14:48.420Z,49.00
2019-05-19T08:17:38.380Z,49.28
2019-05-19T08:20:28.532Z,49.05
2019-05-19T08:23:18.700Z,49.04
2019-05-19T08:26:08.525Z,49.32
2019-05-19T08:28:58.432Z,49.43
2019-05-19T08:31:49.706Z,48.77
2019-05-19T08:34:39.822Z,47.88
2019-05-19T08:37:29.895Z,47.35
2019-05-19T08:40:19.967Z,47.39
2019-05-19T08:43:10.375Z,48.12
2019-05-19T08:46:00.535Z,48.31
2019-05-19T08:48:50.750Z,47.31
2019-05-19T08:51:40.640Z,47.84
2019-05-19T08:54:30.265Z,47.61
2019-05-19T08:57:20.161Z,47.29
2019-05-19T09:00:12.056Z,45.90
2019-05-19T09:03:03.200Z,46.01
2019-05-19T09:05:52.896Z,47.07
2019-05-19T09:08:42.873Z,46.12
2019-05-19T09:11:33.158Z,45.79
2019-05-19T09:14:23.172Z,44.96
2019-05-19T09:17:13.436Z,44.36
2019-05-19T09:20:04.022Z,44.08
2019-05-19T09:22:53.821Z,44.40
2019-05-19T09:25:44.321Z,44.31
2019-05-19T09:28:34.795Z,44.07
2019-05-19T09:31:25.092Z,44.72
2019-05-19T09:34:15.520Z,44.51
2019-05-19T09:37:05.864Z,44.64
2019-05-19T09:39:57.230Z,43.22
2019-05-19T09:42:47.515Z,44.12
2019-05-19T09:45:37.850Z,43.72
2019-05-19T09:48:28.289Z,43.50
2019-05-19T09:51:18.297Z,44.13
2019-05-19T09:54:08.400Z,42.76
2019-05-19T09:56:58.769Z,43.02
2019-05-19T09:59:49.261Z,42.60
2019-05-19T10:02:39.491Z,43.11
2019-05-19T10:05:29.701Z,43.41
2019-05-19T10:08:26.914Z,43.52
2019-05-19T10:11:45.617Z,43.71
2019-05-19T10:14:35.576Z,44.25
2019-05-19T10:17:25.687Z,43.96
2019-05-19T10:20:18.081Z,43.38
2019-05-19T10:23:08.213Z,43.21
2019-05-19T10:25:58.418Z,41.67
2019-05-19T10:28:48.207Z,40.33
2019-05-19T10:31:38.738Z,39.69
2019-05-19T10:34:29.053Z,38.25
2019-05-19T10:37:19.000Z,36.93
2019-05-19T10:40:10.117Z,34.07
2019-05-19T10:43:01.725Z,33.32
2019-05-19T10:46:01.665Z,32.92
2019-05-19T10:48:51.770Z,33.01
2019-05-19T10:51:42.357Z,33.70
2019-05-19T10:54:32.086Z,34.06
2019-05-19T10:57:26.888Z,33.94
2019-05-19T11:00:17.486Z,33.76
2019-05-19T11:03:07.631Z,33.56
2019-05-19T11:05:57.846Z,33.69
2019-05-19T11:08:48.999Z,33.83
2019-05-19T11:11:39.450Z,33.76
2019-05-19T11:14:29.434Z,34.10
2019-05-19T11:17:19.859Z,34.37
2019-05-19T11:20:10.280Z,34.20
2019-05-19T11:23:02.052Z,31.67
2019-05-19T11:25:52.329Z,32.03
2019-05-19T11:28:43.501Z,31.98
2019-05-19T11:31:33.428Z,31.90
2019-05-19T11:34:23.532Z,31.09
2019-05-19T11:37:13.383Z,30.49
2019-05-19T11:40:03.927Z,31.33
2019-05-19T11:42:55.286Z,31.12
2019-05-19T11:45:44.561Z,30.85
2019-05-19T11:48:34.549Z,30.39
2019-05-19T11:51:24.948Z,29.74
2019-05-19T11:54:15.609Z,29.16
2019-05-19T11:57:05.699Z,29.87
2019-05-19T11:59:55.747Z,30.39
2019-05-19T12:02:45.798Z,29.87
2019-05-19T12:05:36.108Z,30.56
2019-05-19T12:08:26.700Z,30.42
2019-05-19T12:11:17.022Z,30.25
2019-05-19T12:14:07.347Z,31.19
2019-05-19T12:16:57.195Z,31.70
2019-05-19T12:19:47.629Z,31.33
2019-05-19T12:22:37.679Z,32.16
2019-05-19T12:25:29.113Z,32.29
2019-05-19T12:28:19.303Z,32.84
2019-05-19T12:31:09.347Z,33.41
2019-05-19T12:33:59.654Z,33.06
2019-05-19T12:36:50.221Z,33.57
2019-05-19T12:39:40.608Z,32.80
2019-05-19T12:42:31.225Z,32.37
2019-05-19T12:45:22.548Z,33.07
2019-05-19T12:48:12.919Z,33.21
2019-05-19T12:51:03.020Z,33.87
2019-05-19T12:53:53.209Z,34.31
2019-05-19T12:56:42.917Z,34.27
2019-05-19T12:59:33.257Z,34.40
2019-05-19T13:02:23.085Z,34.58
2019-05-19T13:05:13.994Z,34.54
2019-05-19T13:08:04.078Z,33.88
2019-05-19T13:10:54.104Z,35.02
2019-05-19T13:13:44.121Z,35.81
2019-05-19T13:16:34.732Z,35.51
2019-05-19T13:19:24.694Z,35.54
2019-05-19T13:22:14.509Z,35.44
2019-05-19T13:25:04.407Z,35.54
2019-05-19T13:27:54.183Z,35.00
2019-05-19T13:30:44.366Z,34.06
2019-05-19T13:33:34.322Z,34.17
2019-05-19T13:36:24.032Z,34.54
2019-05-19T13:39:13.676Z,34.43
2019-05-19T13:42:04.436Z,34.47
2019-05-19T13:44:54.610Z,34.40
2019-05-19T13:47:44.347Z,34.58
2019-05-19T13:50:35.664Z,35.15
2019-05-19T13:53:25.692Z,34.77
2019-05-19T13:56:15.799Z,34.79
2019-05-19T13:59:05.843Z,34.89
2019-05-19T14:01:55.324Z,33.52
2019-05-19T14:04:45.187Z,33.97
2019-05-19T14:07:35.386Z,33.68
2019-05-19T14:10:25.158Z,33.85
2019-05-19T14:13:15.160Z,33.53
2019-05-19T14:16:06.006Z,34.66
2019-05-19T14:18:55.640Z,34.25
2019-05-19T14:21:45.799Z,34.06
2019-05-19T14:24:35.679Z,34.28
2019-05-19T14:27:30.333Z,34.80
2019-05-19T14:30:17.367Z,34.74
2019-05-19T14:33:07.377Z,34.42
2019-05-19T14:35:57.925Z,34.76
2019-05-19T14:39:05.476Z,35.20
2019-05-19T14:41:57.515Z,35.42
2019-05-19T14:44:46.826Z,34.69
2019-05-19T14:47:36.870Z,34.70
2019-05-19T14:50:28.005Z,34.85
2019-05-19T14:53:18.093Z,35.50
2019-05-19T14:56:07.943Z,35.20
2019-05-19T14:58:58.053Z,34.64
2019-05-19T15:01:47.529Z,34.89
2019-05-19T15:04:37.525Z,35.32
2019-05-19T15:07:27.594Z,35.27
2019-05-19T15:10:18.173Z,35.35
2019-05-19T15:13:07.930Z,35.05
2019-05-19T15:15:59.798Z,34.86
2019-05-19T15:18:49.645Z,35.39
2019-05-19T15:21:39.617Z,35.60
2019-05-19T15:24:29.740Z,35.43
2019-05-19T15:27:19.950Z,35.24
2019-05-19T15:30:13.978Z,35.29
2019-05-19T15:33:10.982Z,34.98
2019-05-19T15:36:00.712Z,35.03
2019-05-19T15:39:02.904Z,35.32
2019-05-19T15:41:52.869Z,35.81
2019-05-19T15:44:42.697Z,35.61
2019-05-19T15:47:32.456Z,36.06
2019-05-19T15:50:23.516Z,35.82
2019-05-19T15:53:13.731Z,35.97
2019-05-19T15:56:03.748Z,36.32
2019-05-19T15:58:53.867Z,36.19
2019-05-19T16:01:43.661Z,35.76
2019-05-19T16:04:33.631Z,35.48
2019-05-19T16:07:24.397Z,35.72
2019-05-19T16:10:15.324Z,36.16
2019-05-19T16:13:06.141Z,35.98
2019-05-19T16:15:55.976Z,35.96
2019-05-19T16:18:45.858Z,36.17
2019-05-19T16:21:35.958Z,36.01
2019-05-19T16:24:25.499Z,36.06
2019-05-19T16:27:15.374Z,35.68
2019-05-19T16:30:05.630Z,35.65
2019-05-19T16:32:55.248Z,36.16
2019-05-19T16:35:45.109Z,35.68
2019-05-19T16:38:34.882Z,35.90
2019-05-19T16:41:24.813Z,36.20
2019-05-19T16:44:14.306Z,36.50
2019-05-19T16:47:04.471Z,36.20
2019-05-19T16:49:54.708Z,36.65
2019-05-19T16:52:44.907Z,36.97
2019-05-19T16:55:35.238Z,36.87
2019-05-19T16:58:25.354Z,36.96
2019-05-19T17:01:16.065Z,36.99
2019-05-19T17:04:06.190Z,36.93
2019-05-19T17:06:56.207Z,37.06
2019-05-19T17:09:46.364Z,36.84
2019-05-19T17:12:36.263Z,36.75
2019-05-19T17:15:26.389Z,36.91
2019-05-19T17:18:16.657Z,36.81
2019-05-19T17:21:06.537Z,37.11
2019-05-19T17:23:56.539Z,37.32
2019-05-19T17:26:46.817Z,37.06
2019-05-19T17:29:36.485Z,36.93
2019-05-19T17:32:26.258Z,37.22
2019-05-19T17:35:16.950Z,37.11
2019-05-19T17:38:06.584Z,37.34
2019-05-19T17:40:56.771Z,37.45
2019-05-19T17:43:46.053Z,37.67
2019-05-19T17:46:36.243Z,37.65
2019-05-19T17:49:26.490Z,37.85
2019-05-19T17:52:16.300Z,37.74
2019-05-19T17:55:06.737Z,37.87
2019-05-19T17:57:59.004Z,38.15
2019-05-19T18:00:48.359Z,38.22
2019-05-19T18:03:39.916Z,38.12
2019-05-19T18:06:29.933Z,38.26
2019-05-19T18:09:19.081Z,38.37
2019-05-19T18:12:08.855Z,38.32
2019-05-19T18:14:59.041Z,38.48
2019-05-19T18:17:49.170Z,38.58
2019-05-19T18:20:39.173Z,38.71
2019-05-19T18:23:29.366Z,38.83
2019-05-19T18:26:19.063Z,38.96
2019-05-19T18:29:10.019Z,39.18
2019-05-19T18:32:00.584Z,39.62
2019-05-19T18:34:50.536Z,39.83
2019-05-19T18:37:40.788Z,39.73
2019-05-19T18:40:30.518Z,39.95
2019-05-19T18:43:20.725Z,40.20
2019-05-19T18:46:10.888Z,40.57
2019-05-19T18:49:00.887Z,40.95
2019-05-19T18:51:50.698Z,41.24
2019-05-19T18:54:40.350Z,41.50
2019-05-19T18:57:30.364Z,41.74
2019-05-19T19:00:39.612Z,41.97
2019-05-19T19:03:29.705Z,42.31
2019-05-19T19:06:20.186Z,42.79
2019-05-19T19:09:10.247Z,43.00
2019-05-19T19:12:00.152Z,43.29
2019-05-19T19:14:50.159Z,43.53
2019-05-19T19:17:40.370Z,43.75
2019-05-19T19:20:30.594Z,44.16
2019-05-19T19:23:21.331Z,44.49
2019-05-19T19:26:11.177Z,44.81
2019-05-19T19:29:00.847Z,45.08
2019-05-19T19:31:51.201Z,45.30
2019-05-19T19:34:41.782Z,45.60
2019-05-19T19:37:32.051Z,45.88
2019-05-19T19:40:32.282Z,46.15
2019-05-19T19:43:21.835Z,46.47
2019-05-19T19:46:11.467Z,46.85
2019-05-19T19:49:00.811Z,47.11
2019-05-19T19:51:50.835Z,47.30
2019-05-19T19:54:40.584Z,47.56
2019-05-19T19:57:30.686Z,47.69
2019-05-19T20:00:41.245Z,48.05
2019-05-19T20:03:30.735Z,48.35
2019-05-19T20:06:20.569Z,48.64
2019-05-19T20:09:10.679Z,48.97
2019-05-19T20:12:00.274Z,49.17
2019-05-19T20:14:50.233Z,49.36
2019-05-19T20:17:41.851Z,49.60
2019-05-19T20:20:31.857Z,49.93
2019-05-19T20:23:21.891Z,50.18
2019-05-19T20:26:11.711Z,50.40
2019-05-19T20:29:01.586Z,50.64
2019-05-19T20:31:51.573Z,50.87
2019-05-19T20:34:41.971Z,51.06
2019-05-19T20:37:31.955Z,51.30
2019-05-19T20:40:21.550Z,51.50
2019-05-19T20:43:11.036Z,51.72
2019-05-19T20:46:01.384Z,51.92
2019-05-19T20:48:51.633Z,52.07
2019-05-19T20:51:41.704Z,52.30
2019-05-19T20:54:31.352Z,52.42
2019-05-19T20:57:22.016Z,52.56
2019-05-19T21:00:12.062Z,52.69
2019-05-19T21:03:01.681Z,52.90
2019-05-19T21:05:51.448Z,53.10
2019-05-19T21:08:41.295Z,53.28
2019-05-19T21:11:31.703Z,53.44
2019-05-19T21:14:24.578Z,53.55
2019-05-19T21:17:14.236Z,53.65
2019-05-19T21:20:06.701Z,53.87
2019-05-19T21:22:58.765Z,54.08
2019-05-19T21:25:49.000Z,54.23
2019-05-19T21:28:39.024Z,54.45
2019-05-19T21:31:29.149Z,54.68
2019-05-19T21:34:19.456Z,54.81
2019-05-19T21:37:10.023Z,54.99
2019-05-19T21:39:59.682Z,55.14
2019-05-19T21:42:49.603Z,55.30
2019-05-19T21:45:39.936Z,55.38
2019-05-19T21:48:34.577Z,55.50
2019-05-19T21:51:24.488Z,55.63
2019-05-19T21:54:14.445Z,55.60
2019-05-19T21:57:04.760Z,55.53
2019-05-19T21:59:54.463Z,55.57
2019-05-19T22:02:45.772Z,55.58
2019-05-19T22:05:35.729Z,55.58
2019-05-19T22:08:27.299Z,55.62
2019-05-19T22:11:17.275Z,55.66
2019-05-19T22:14:07.364Z,55.61
2019-05-19T22:16:57.517Z,55.56
2019-05-19T22:19:47.241Z,55.62
2019-05-19T22:22:38.516Z,55.69
2019-05-19T22:25:28.543Z,55.69
2019-05-19T22:28:18.448Z,55.71
2019-05-19T22:31:08.256Z,55.77
2019-05-19T22:33:58.460Z,55.83
2019-05-19T22:36:48.542Z,55.92
2019-05-19T22:39:38.924Z,55.98
2019-05-19T22:42:28.849Z,56.05
2019-05-19T22:45:18.869Z,56.10
2019-05-19T22:48:09.284Z,56.16
2019-05-19T22:50:59.480Z,56.24
2019-05-19T22:53:50.018Z,56.26
2019-05-19T22:56:40.212Z,56.26
2019-05-19T22:59:29.927Z,56.29
2019-05-19T23:02:20.948Z,56.26
2019-05-19T23:05:11.463Z,56.20
2019-05-19T23:08:01.602Z,56.13
2019-05-19T23:10:51.469Z,56.07
2019-05-19T23:13:41.424Z,56.00
2019-05-19T23:16:31.831Z,55.95
2019-05-19T23:19:22.433Z,55.90
2019-05-19T23:22:11.899Z,55.85
2019-05-19T23:25:02.396Z,55.79
2019-05-19T23:27:52.684Z,55.78
2019-05-19T23:30:42.880Z,55.81
2019-05-19T23:33:33.651Z,55.82
2019-05-19T23:36:23.950Z,55.84
2019-05-19T23:39:13.956Z,55.84
2019-05-19T23:42:03.944Z,55.84
2019-05-19T23:44:54.225Z,55.84
2019-05-19T23:47:43.680Z,55.89
2019-05-19T23:50:34.098Z,55.97
2019-05-19T23:53:24.178Z,55.99
2019-05-19T23:56:13.858Z,56.08
2019-05-19T23:59:05.453Z,56.08
